createdAt,value
2023-04-01T00:01:50.078Z,8.23
2023-04-01T00:04:16.411Z,8.15
2023-04-01T00:06:42.736Z,8.09
2023-04-01T00:09:09.030Z,7.97
2023-04-01T00:11:35.322Z,8.25
2023-04-01T00:14:01.636Z,8.09
2023-04-01T00:16:27.956Z,8.08
2023-04-01T00:18:54.266Z,8.08
2023-04-01T00:21:20.881Z,8.11
2023-04-01T00:23:47.176Z,7.98
2023-04-01T00:26:13.667Z,7.97
2023-04-01T00:28:40.048Z,8.07
2023-04-01T00:31:06.351Z,8.12
2023-04-01T00:33:32.655Z,8.06
2023-04-01T00:35:59.020Z,8.10
2023-04-01T00:38:25.374Z,8.22
2023-04-01T00:40:51.689Z,7.90
2023-04-01T00:43:18.008Z,7.86
2023-04-01T00:45:44.309Z,8.13
2023-04-01T00:48:10.645Z,7.92
2023-04-01T00:50:37.013Z,8.02
2023-04-01T00:53:03.320Z,7.89
2023-04-01T00:55:29.729Z,7.93
2023-04-01T00:57:56.288Z,7.88
2023-04-01T01:00:22.590Z,8.00
2023-04-01T01:02:48.939Z,8.06
2023-04-01T01:05:15.322Z,7.89
2023-04-01T01:07:41.624Z,7.90
2023-04-01T01:10:07.948Z,7.93
2023-04-01T01:12:34.332Z,7.90
2023-04-01T01:15:00.663Z,7.90
2023-04-01T01:17:27.017Z,7.90
2023-04-01T01:19:53.368Z,7.84
2023-04-01T01:22:19.662Z,7.84
2023-04-01T01:24:45.961Z,7.90
2023-04-01T01:27:12.353Z,7.88
2023-04-01T01:29:38.658Z,7.91
2023-04-01T01:32:04.945Z,7.89
2023-04-01T01:34:31.273Z,7.83
2023-04-01T01:36:57.566Z,7.78
2023-04-01T01:39:23.859Z,7.66
2023-04-01T01:41:50.173Z,7.60
2023-04-01T01:44:16.462Z,7.69
2023-04-01T01:46:42.765Z,7.61
2023-04-01T01:49:09.079Z,7.74
2023-04-01T01:51:35.384Z,7.71
2023-04-01T01:54:01.686Z,7.72
2023-04-01T01:56:28.003Z,7.60
2023-04-01T01:58:54.301Z,7.44
2023-04-01T02:01:20.629Z,7.55
2023-04-01T02:03:46.971Z,7.57
2023-04-01T02:06:13.278Z,7.47
2023-04-01T02:08:39.571Z,7.52
2023-04-01T02:11:05.900Z,7.49
2023-04-01T02:13:32.192Z,7.57
2023-04-01T02:15:58.545Z,7.62
2023-04-01T02:18:24.886Z,7.65
2023-04-01T02:20:51.191Z,7.71
2023-04-01T02:23:17.509Z,7.61
2023-04-01T02:25:43.847Z,7.44
2023-04-01T02:28:10.259Z,7.29
2023-04-01T02:30:36.551Z,7.39
2023-04-01T02:33:02.948Z,7.21
2023-04-01T02:35:29.283Z,7.36
2023-04-01T02:37:55.585Z,7.58
2023-04-01T02:40:21.925Z,7.51
2023-04-01T02:42:48.238Z,7.58
2023-04-01T02:45:14.550Z,7.48
2023-04-01T02:47:40.920Z,7.48
2023-04-01T02:50:07.291Z,7.35
2023-04-01T02:52:33.590Z,7.45
2023-04-01T02:54:59.911Z,7.61
2023-04-01T02:57:26.291Z,7.67
2023-04-01T02:59:52.648Z,7.62
2023-04-01T03:02:19.272Z,7.61
2023-04-01T03:04:45.601Z,7.55
2023-04-01T03:07:11.902Z,7.47
2023-04-01T03:09:38.233Z,7.44
2023-04-01T03:12:04.535Z,7.31
2023-04-01T03:14:30.836Z,7.27
2023-04-01T03:16:57.256Z,7.20
2023-04-01T03:19:23.574Z,7.07
2023-04-01T03:21:49.876Z,7.11
2023-04-01T03:24:16.198Z,6.97
2023-04-01T03:26:42.509Z,7.09
2023-04-01T03:29:08.811Z,7.11
2023-04-01T03:31:35.165Z,7.09
2023-04-01T03:34:01.477Z,7.24
2023-04-01T03:36:27.791Z,7.19
2023-04-01T03:38:54.218Z,7.12
2023-04-01T03:41:20.517Z,7.13
2023-04-01T03:43:46.817Z,7.19
2023-04-01T03:46:13.190Z,7.23
2023-04-01T03:48:39.514Z,7.06
2023-04-01T03:51:05.808Z,7.03
2023-04-01T03:53:32.138Z,7.09
2023-04-01T03:55:58.436Z,7.05
2023-04-01T03:58:24.739Z,7.06
2023-04-01T04:00:51.082Z,7.01
2023-04-01T04:03:17.478Z,6.96
2023-04-01T04:05:43.945Z,7.00
2023-04-01T04:08:10.262Z,6.98
2023-04-01T04:10:36.572Z,7.01
2023-04-01T04:13:02.868Z,7.01
2023-04-01T04:15:29.210Z,7.04
2023-04-01T04:17:55.578Z,7.02
2023-04-01T04:20:21.923Z,6.91
2023-04-01T04:22:48.245Z,6.71
2023-04-01T04:25:14.544Z,6.86
2023-04-01T04:27:40.853Z,6.83
2023-04-01T04:30:07.180Z,6.82
2023-04-01T04:32:33.516Z,6.83
2023-04-01T04:34:59.820Z,6.75
2023-04-01T04:37:26.135Z,6.62
2023-04-01T04:39:52.439Z,6.70
2023-04-01T04:42:18.729Z,6.72
2023-04-01T04:44:45.093Z,6.73
2023-04-01T04:47:11.455Z,6.59
2023-04-01T04:49:37.778Z,6.58
2023-04-01T04:52:04.084Z,6.70
2023-04-01T04:54:30.373Z,6.53
2023-04-01T04:56:56.741Z,6.58
2023-04-01T04:59:23.098Z,6.72
2023-04-01T05:01:49.480Z,6.70
2023-04-01T05:04:15.802Z,6.62
2023-04-01T05:06:42.111Z,6.63
2023-04-01T05:09:08.406Z,6.46
2023-04-01T05:11:34.704Z,6.45
2023-04-01T05:14:01.032Z,6.62
2023-04-01T05:16:27.395Z,6.54
2023-04-01T05:18:53.708Z,6.50
2023-04-01T05:21:20.026Z,6.56
2023-04-01T05:23:46.314Z,6.43
2023-04-01T05:26:12.619Z,6.46
2023-04-01T05:28:38.943Z,6.48
2023-04-01T05:31:05.242Z,6.40
2023-04-01T05:33:31.565Z,6.45
2023-04-01T05:35:57.977Z,6.46
2023-04-01T05:38:29.024Z,6.62
2023-04-01T05:40:55.324Z,6.55
2023-04-01T05:43:21.639Z,6.71
2023-04-01T05:45:47.948Z,6.77
2023-04-01T05:48:14.242Z,6.63
2023-04-01T05:50:41.799Z,6.48
2023-04-01T05:53:08.080Z,6.54
2023-04-01T05:55:34.554Z,6.36
2023-04-01T05:58:01.098Z,6.40
2023-04-01T06:00:27.389Z,6.44
2023-04-01T06:02:53.756Z,6.54
2023-04-01T06:05:20.165Z,6.50
2023-04-01T06:07:46.449Z,6.26
2023-04-01T06:10:12.781Z,6.44
2023-04-01T06:12:39.107Z,6.25
2023-04-01T06:15:05.400Z,6.24
2023-04-01T06:17:33.275Z,6.40
2023-04-01T06:19:59.602Z,6.25
2023-04-01T06:22:25.914Z,6.31
2023-04-01T06:24:52.210Z,6.34
2023-04-01T06:27:18.520Z,6.44
2023-04-01T06:29:44.834Z,6.48
2023-04-01T06:32:11.429Z,6.43
2023-04-01T06:34:37.833Z,6.38
2023-04-01T06:37:04.156Z,6.51
2023-04-01T06:39:30.453Z,6.31
2023-04-01T06:41:56.766Z,6.40
2023-04-01T06:44:23.077Z,6.32
2023-04-01T06:46:49.369Z,6.32
2023-04-01T06:49:15.689Z,6.36
2023-04-01T06:51:42.007Z,6.33
2023-04-01T06:54:08.298Z,6.31
2023-04-01T06:56:34.651Z,6.51
2023-04-01T06:59:00.973Z,6.52
2023-04-01T07:01:27.298Z,6.57
2023-04-01T07:03:53.617Z,6.44
2023-04-01T07:06:19.913Z,6.53
2023-04-01T07:08:46.321Z,6.49
2023-04-01T07:11:12.646Z,6.62
2023-04-01T07:13:38.939Z,6.39
2023-04-01T07:16:05.231Z,6.44
2023-04-01T07:18:31.534Z,6.47
2023-04-01T07:20:57.823Z,6.60
2023-04-01T07:23:24.129Z,6.38
2023-04-01T07:25:50.447Z,6.58
2023-04-01T07:28:16.740Z,6.47
2023-04-01T07:30:43.061Z,6.34
2023-04-01T07:33:09.435Z,6.32
2023-04-01T07:35:35.889Z,6.30
2023-04-01T07:38:02.172Z,6.26
2023-04-01T07:40:28.496Z,6.24
2023-04-01T07:42:54.778Z,6.16
2023-04-01T07:45:21.066Z,6.34
2023-04-01T07:47:47.419Z,6.31
2023-04-01T07:50:13.749Z,6.42
2023-04-01T07:52:40.052Z,6.49
2023-04-01T07:55:06.371Z,6.50
2023-04-01T07:57:32.717Z,6.57
2023-04-01T07:59:59.053Z,6.55
2023-04-01T08:02:25.447Z,6.56
2023-04-01T08:04:51.843Z,6.62
2023-04-01T08:07:18.223Z,6.73
2023-04-01T08:09:44.569Z,6.74
2023-04-01T08:12:10.881Z,6.68
2023-04-01T08:14:37.171Z,6.74
2023-04-01T08:17:03.487Z,6.78
2023-04-01T08:19:29.765Z,6.66
2023-04-01T08:21:56.095Z,6.58
2023-04-01T08:24:22.881Z,6.73
2023-04-01T08:26:49.240Z,6.82
2023-04-01T08:29:15.538Z,6.85
2023-04-01T08:31:41.928Z,6.78
2023-04-01T08:34:08.289Z,6.87
2023-04-01T08:36:34.656Z,6.83
2023-04-01T08:39:00.993Z,6.87
2023-04-01T08:41:27.328Z,6.94
2023-04-01T08:43:53.625Z,6.99
2023-04-01T08:46:19.990Z,6.99
2023-04-01T08:48:46.330Z,6.99
2023-04-01T08:51:12.635Z,7.01
2023-04-01T08:53:38.973Z,7.10
2023-04-01T08:56:05.292Z,7.35
2023-04-01T08:58:31.588Z,7.27
2023-04-01T09:00:57.903Z,7.27
2023-04-01T09:03:24.243Z,7.27
2023-04-01T09:05:50.678Z,7.28
2023-04-01T09:08:17.119Z,7.25
2023-04-01T09:10:43.489Z,7.28
2023-04-01T09:13:09.798Z,7.18
2023-04-01T09:15:36.426Z,7.22
2023-04-01T09:18:02.993Z,7.05
2023-04-01T09:20:29.289Z,6.97
2023-04-01T09:22:55.623Z,6.74
2023-04-01T09:25:22.022Z,6.67
2023-04-01T09:27:48.311Z,6.82
2023-04-01T09:30:14.640Z,6.93
2023-04-01T09:32:41.005Z,7.07
2023-04-01T09:35:07.350Z,6.97
2023-04-01T09:37:33.686Z,6.84
2023-04-01T09:39:59.979Z,6.68
2023-04-01T09:42:26.288Z,6.57
2023-04-01T09:44:52.599Z,6.82
2023-04-01T09:47:19.038Z,7.08
2023-04-01T09:49:45.336Z,7.14
2023-04-01T09:52:11.651Z,7.18
2023-04-01T09:54:37.941Z,7.15
2023-04-01T09:57:04.244Z,7.14
2023-04-01T09:59:30.580Z,7.34
2023-04-01T10:01:56.941Z,7.42
2023-04-01T10:04:23.291Z,7.52
2023-04-01T10:06:49.610Z,7.56
2023-04-01T10:09:15.907Z,7.64
2023-04-01T10:11:42.207Z,7.61
2023-04-01T10:14:08.556Z,7.46
2023-04-01T10:16:34.880Z,7.44
2023-04-01T10:19:01.208Z,7.30
2023-04-01T10:21:27.511Z,7.28
2023-04-01T10:23:53.802Z,7.34
2023-04-01T10:26:20.099Z,7.42
2023-04-01T10:28:46.397Z,7.36
2023-04-01T10:31:12.682Z,7.04
2023-04-01T10:33:38.997Z,7.01
2023-04-01T10:36:05.349Z,7.05
2023-04-01T10:38:31.659Z,7.41
2023-04-01T10:40:57.949Z,7.41
2023-04-01T10:43:24.255Z,7.43
2023-04-01T10:45:50.570Z,7.35
2023-04-01T10:48:16.878Z,7.63
2023-04-01T10:50:43.191Z,7.74
2023-04-01T10:53:09.469Z,7.65
2023-04-01T10:55:36.048Z,7.72
2023-04-01T10:58:02.537Z,7.88
2023-04-01T11:00:28.826Z,8.05
2023-04-01T11:02:55.165Z,8.08
2023-04-01T11:05:21.537Z,8.20
2023-04-01T11:07:55.877Z,8.22
2023-04-01T11:10:29.376Z,8.53
2023-04-01T11:12:55.665Z,8.68
2023-04-01T11:15:21.997Z,8.66
2023-04-01T11:17:48.467Z,8.54
2023-04-01T11:20:14.802Z,8.49
2023-04-01T11:22:41.168Z,8.35
2023-04-01T11:25:07.475Z,8.24
2023-04-01T11:27:33.766Z,8.41
2023-04-01T11:30:00.799Z,8.48
2023-04-01T11:32:27.340Z,8.54
2023-04-01T11:34:53.665Z,8.52
2023-04-01T11:37:19.949Z,8.37
2023-04-01T11:39:46.297Z,8.48
2023-04-01T11:42:12.994Z,8.99
2023-04-01T11:44:39.284Z,9.20
2023-04-01T11:47:05.627Z,9.36
2023-04-01T11:49:31.920Z,9.91
2023-04-01T11:51:58.194Z,9.85
2023-04-01T11:54:24.502Z,9.74
2023-04-01T11:56:50.832Z,10.05
2023-04-01T11:59:17.171Z,10.04
2023-04-01T12:01:43.541Z,9.94
2023-04-01T12:04:10.035Z,9.85
2023-04-01T12:06:36.440Z,9.78
2023-04-01T12:09:03.584Z,9.79
2023-04-01T12:11:29.873Z,9.50
2023-04-01T12:13:56.167Z,9.44
2023-04-01T12:16:22.539Z,9.06
2023-04-01T12:18:48.864Z,8.39
2023-04-01T12:21:15.165Z,7.97
2023-04-01T12:23:41.516Z,8.00
2023-04-01T12:26:07.834Z,8.23
2023-04-01T12:28:34.129Z,8.43
2023-04-01T12:31:00.450Z,8.64
2023-04-01T12:33:26.739Z,9.02
2023-04-01T12:35:53.068Z,9.60
2023-04-01T12:38:21.089Z,9.80
2023-04-01T12:40:47.994Z,9.97
2023-04-01T12:43:14.289Z,10.20
2023-04-01T12:45:40.632Z,10.31
2023-04-01T12:48:07.033Z,10.17
2023-04-01T12:50:33.345Z,10.33
2023-04-01T12:52:59.660Z,10.19
2023-04-01T12:55:25.950Z,10.32
2023-04-01T12:57:52.227Z,10.34
2023-04-01T13:00:18.538Z,10.49
2023-04-01T13:02:44.868Z,10.61
2023-04-01T13:05:11.189Z,10.49
2023-04-01T13:07:37.528Z,10.18
2023-04-01T13:10:03.838Z,9.92
2023-04-01T13:12:30.152Z,9.89
2023-04-01T13:14:56.474Z,9.80
2023-04-01T13:17:22.817Z,9.73
2023-04-01T13:20:02.100Z,9.93
2023-04-01T13:22:31.646Z,10.07
2023-04-01T13:24:57.935Z,9.93
2023-04-01T13:27:24.219Z,10.00
2023-04-01T13:29:50.565Z,9.93
2023-04-01T13:32:16.861Z,10.15
2023-04-01T13:34:43.152Z,10.48
2023-04-01T13:37:09.466Z,10.49
2023-04-01T13:39:35.757Z,10.45
2023-04-01T13:42:02.058Z,10.37
2023-04-01T13:44:28.366Z,10.40
2023-04-01T13:46:54.717Z,10.46
2023-04-01T13:49:21.153Z,10.42
2023-04-01T13:51:47.480Z,10.33
2023-04-01T13:54:13.764Z,10.24
2023-04-01T13:56:40.056Z,9.99
2023-04-01T13:59:06.361Z,9.98
2023-04-01T14:01:32.710Z,10.08
2023-04-01T14:03:59.037Z,9.78
2023-04-01T14:06:25.451Z,9.00
2023-04-01T14:08:51.738Z,8.83
2023-04-01T14:11:18.022Z,8.77
2023-04-01T14:13:44.380Z,9.01
2023-04-01T14:16:10.701Z,9.31
2023-04-01T14:18:37.016Z,9.50
2023-04-01T14:21:03.341Z,9.61
2023-04-01T14:23:29.633Z,9.45
2023-04-01T14:25:55.920Z,9.53
2023-04-01T14:28:22.237Z,9.61
2023-04-01T14:30:48.532Z,9.65
2023-04-01T14:33:14.864Z,9.84
2023-04-01T14:35:41.243Z,9.87
2023-04-01T14:38:07.540Z,9.86
2023-04-01T14:40:33.838Z,9.67
2023-04-01T14:43:00.161Z,9.66
2023-04-01T14:45:26.463Z,9.48
2023-04-01T14:47:52.817Z,9.51
2023-04-01T14:50:19.234Z,9.70
2023-04-01T14:52:45.527Z,9.62
2023-04-01T14:55:11.810Z,9.54
2023-04-01T14:57:38.163Z,9.62
2023-04-01T15:00:04.484Z,9.53
2023-04-01T15:02:31.021Z,9.49
2023-04-01T15:04:57.363Z,9.30
2023-04-01T15:07:23.682Z,9.43
2023-04-01T15:09:49.981Z,9.38
2023-04-01T15:12:16.301Z,9.64
2023-04-01T15:14:42.595Z,9.63
2023-04-01T15:17:08.889Z,9.79
2023-04-01T15:19:35.209Z,9.63
2023-04-01T15:22:01.516Z,9.64
2023-04-01T15:24:27.839Z,9.64
2023-04-01T15:26:54.158Z,9.55
2023-04-01T15:29:20.464Z,9.53
2023-04-01T15:31:46.790Z,9.44
2023-04-01T15:34:13.168Z,9.39
2023-04-01T15:36:41.427Z,9.63
2023-04-01T15:39:07.944Z,9.64
2023-04-01T15:41:34.295Z,9.93
2023-04-01T15:44:00.578Z,9.96
2023-04-01T15:46:26.893Z,10.09
2023-04-01T15:48:53.244Z,10.29
2023-04-01T15:51:19.522Z,10.34
2023-04-01T15:53:45.809Z,10.20
2023-04-01T15:56:12.111Z,10.27
2023-04-01T15:58:38.394Z,10.23
2023-04-01T16:01:04.675Z,10.25
2023-04-01T16:03:31.086Z,10.17
2023-04-01T16:05:57.518Z,10.06
2023-04-01T16:08:23.805Z,10.15
2023-04-01T16:10:50.114Z,10.27
2023-04-01T16:13:16.408Z,10.10
2023-04-01T16:15:42.710Z,9.94
2023-04-01T16:18:09.064Z,10.03
2023-04-01T16:20:35.576Z,9.99
2023-04-01T16:23:03.134Z,10.08
2023-04-01T16:25:29.438Z,9.78
2023-04-01T16:27:56.478Z,10.14
2023-04-01T16:30:22.940Z,10.32
2023-04-01T16:32:49.288Z,10.40
2023-04-01T16:35:15.595Z,10.52
2023-04-01T16:37:42.113Z,10.42
2023-04-01T16:40:08.428Z,10.39
2023-04-01T16:42:34.731Z,10.21
2023-04-01T16:45:01.033Z,10.19
2023-04-01T16:47:27.405Z,10.22
2023-04-01T16:49:53.736Z,10.19
2023-04-01T16:52:20.037Z,10.04
2023-04-01T16:54:46.355Z,10.01
2023-04-01T16:57:12.675Z,9.97
2023-04-01T16:59:38.980Z,9.89
2023-04-01T17:02:05.305Z,9.85
2023-04-01T17:04:31.624Z,9.77
2023-04-01T17:06:57.935Z,9.64
2023-04-01T17:09:24.239Z,9.52
2023-04-01T17:11:50.529Z,9.51
2023-04-01T17:14:16.840Z,9.48
2023-04-01T17:16:43.158Z,9.45
2023-04-01T17:19:09.445Z,9.42
2023-04-01T17:21:35.739Z,9.41
2023-04-01T17:24:02.066Z,9.36
2023-04-01T17:26:28.371Z,9.22
2023-04-01T17:28:54.663Z,9.12
2023-04-01T17:31:21.098Z,8.92
2023-04-01T17:33:47.408Z,8.87
2023-04-01T17:36:13.720Z,8.88
2023-04-01T17:38:40.040Z,9.06
2023-04-01T17:41:06.333Z,8.92
2023-04-01T17:43:32.623Z,8.90
2023-04-01T17:45:58.955Z,8.99
2023-04-01T17:48:25.254Z,9.08
2023-04-01T17:50:51.576Z,8.83
2023-04-01T17:53:17.962Z,8.64
2023-04-01T17:55:44.247Z,8.51
2023-04-01T17:58:10.528Z,8.52
2023-04-01T18:00:50.601Z,8.59
2023-04-01T18:03:20.210Z,8.53
2023-04-01T18:05:46.712Z,8.68
2023-04-01T18:08:12.998Z,8.63
2023-04-01T18:10:39.291Z,8.72
2023-04-01T18:13:05.594Z,8.59
2023-04-01T18:15:31.877Z,8.64
2023-04-01T18:17:58.201Z,8.87
2023-04-01T18:20:24.552Z,8.62
2023-04-01T18:22:50.860Z,8.82
2023-04-01T18:25:17.171Z,8.70
2023-04-01T18:27:43.492Z,8.84
2023-04-01T18:30:09.794Z,8.53
2023-04-01T18:32:36.119Z,8.74
2023-04-01T18:35:02.528Z,8.62
2023-04-01T18:37:28.824Z,8.54
2023-04-01T18:39:55.131Z,8.44
2023-04-01T18:42:21.454Z,8.48
2023-04-01T18:44:47.769Z,8.61
2023-04-01T18:47:14.067Z,8.57
2023-04-01T18:49:40.375Z,8.69
2023-04-01T18:52:06.688Z,8.71
2023-04-01T18:54:32.996Z,8.85
2023-04-01T18:56:59.417Z,8.75
2023-04-01T18:59:25.714Z,8.87
2023-04-01T19:01:52.001Z,8.71
2023-04-01T19:04:18.311Z,8.69
2023-04-01T19:06:44.624Z,8.74
2023-04-01T19:09:10.935Z,8.78
2023-04-01T19:11:37.260Z,8.84
2023-04-01T19:14:03.560Z,8.79
2023-04-01T19:16:29.856Z,8.46
2023-04-01T19:18:56.165Z,8.35
2023-04-01T19:21:22.463Z,8.46
2023-04-01T19:23:48.764Z,8.46
2023-04-01T19:26:15.085Z,8.40
2023-04-01T19:28:41.514Z,8.35
2023-04-01T19:31:07.829Z,8.31
2023-04-01T19:33:34.149Z,8.40
2023-04-01T19:36:00.465Z,8.46
2023-04-01T19:38:26.793Z,8.33
2023-04-01T19:40:53.105Z,8.40
2023-04-01T19:43:19.406Z,8.19
2023-04-01T19:45:45.699Z,8.46
2023-04-01T19:48:12.036Z,8.45
2023-04-01T19:50:38.340Z,8.27
2023-04-01T19:53:04.643Z,8.19
2023-04-01T19:55:30.994Z,8.32
2023-04-01T19:57:57.340Z,8.34
2023-04-01T20:00:23.777Z,8.53
2023-04-01T20:02:50.399Z,8.39
2023-04-01T20:05:16.822Z,8.44
2023-04-01T20:07:43.187Z,8.36
2023-04-01T20:10:09.491Z,8.51
2023-04-01T20:12:35.819Z,8.57
2023-04-01T20:15:02.129Z,8.64
2023-04-01T20:17:28.486Z,8.49
2023-04-01T20:19:54.865Z,8.68
2023-04-01T20:22:21.157Z,8.63
2023-04-01T20:24:47.477Z,8.64
2023-04-01T20:27:13.937Z,8.63
2023-04-01T20:29:40.230Z,8.48
2023-04-01T20:32:06.594Z,8.26
2023-04-01T20:34:32.928Z,7.98
2023-04-01T20:36:59.248Z,8.14
2023-04-01T20:39:25.577Z,8.38
2023-04-01T20:41:51.877Z,8.57
2023-04-01T20:44:18.161Z,8.65
2023-04-01T20:46:46.192Z,8.51
2023-04-01T20:49:13.188Z,8.37
2023-04-01T20:51:39.488Z,8.48
2023-04-01T20:54:05.808Z,8.36
2023-04-01T20:56:32.115Z,8.34
2023-04-01T20:58:58.395Z,8.43
2023-04-01T21:01:24.718Z,8.54
2023-04-01T21:03:51.040Z,8.27
2023-04-01T21:06:17.331Z,8.68
2023-04-01T21:08:43.747Z,8.68
2023-04-01T21:11:10.114Z,8.69
2023-04-01T21:13:36.475Z,8.71
2023-04-01T21:16:02.896Z,8.68
2023-04-01T21:18:29.335Z,8.49
2023-04-01T21:20:55.704Z,8.45
2023-04-01T21:23:22.096Z,8.71
2023-04-01T21:25:48.471Z,8.75
2023-04-01T21:28:14.857Z,8.60
2023-04-01T21:30:41.247Z,8.30
2023-04-01T21:33:07.744Z,8.51
2023-04-01T21:35:34.446Z,8.53
2023-04-01T21:38:01.032Z,8.63
2023-04-01T21:40:30.204Z,8.57
2023-04-01T21:42:56.571Z,8.44
2023-04-01T21:45:22.952Z,8.71
2023-04-01T21:47:49.332Z,8.89
2023-04-01T21:50:15.822Z,8.63
2023-04-01T21:52:42.204Z,8.45
2023-04-01T21:55:08.586Z,8.62
2023-04-01T21:57:36.125Z,8.55
2023-04-01T22:00:03.733Z,8.49
2023-04-01T22:02:30.133Z,8.40
2023-04-01T22:04:56.645Z,8.34
2023-04-01T22:07:23.042Z,8.17
2023-04-01T22:09:49.423Z,8.02
2023-04-01T22:12:15.821Z,8.21
2023-04-01T22:14:42.268Z,8.19
2023-04-01T22:17:08.629Z,8.26
2023-04-01T22:19:35.008Z,8.33
2023-04-01T22:22:01.417Z,8.14
2023-04-01T22:24:27.800Z,8.02
2023-04-01T22:26:54.177Z,8.03
2023-04-01T22:29:20.579Z,8.15
2023-04-01T22:31:46.980Z,8.29
2023-04-01T22:34:13.402Z,8.20
2023-04-01T22:36:39.783Z,8.28
2023-04-01T22:39:06.146Z,8.22
2023-04-01T22:41:32.507Z,7.77
2023-04-01T22:44:00.080Z,8.14
2023-04-01T22:46:26.506Z,8.16
2023-04-01T22:48:52.945Z,8.42
2023-04-01T22:51:19.476Z,8.30
2023-04-01T22:53:45.868Z,7.78
2023-04-01T22:56:12.238Z,7.98
2023-04-01T22:58:38.633Z,8.03
2023-04-01T23:01:05.030Z,7.86
2023-04-01T23:03:31.440Z,7.85
2023-04-01T23:05:57.844Z,7.94
2023-04-01T23:08:24.220Z,8.16
2023-04-01T23:10:50.612Z,8.00
2023-04-01T23:13:17.008Z,8.26
2023-04-01T23:15:43.401Z,8.30
2023-04-01T23:18:09.805Z,8.27
2023-04-01T23:20:36.292Z,8.23
2023-04-01T23:23:02.662Z,8.27
2023-04-01T23:25:29.044Z,7.94
2023-04-01T23:27:55.502Z,8.00
2023-04-01T23:30:21.872Z,7.98
2023-04-01T23:32:48.310Z,8.09
2023-04-01T23:35:14.694Z,7.98
2023-04-01T23:37:41.064Z,7.90
2023-04-01T23:40:07.426Z,8.10
2023-04-01T23:42:33.896Z,8.13
2023-04-01T23:45:00.275Z,8.10
2023-04-01T23:47:26.688Z,8.18
2023-04-01T23:49:53.116Z,8.27
2023-04-01T23:52:19.492Z,8.45
2023-04-01T23:54:45.890Z,8.17
2023-04-01T23:57:12.359Z,8.13
2023-04-01T23:59:38.759Z,8.11
